Time;durP1;ratioP1;P1;durP2;ratioP2;P2;SDS_P1;SDS_P2;PMS_P1;PMS_P2;Temp;Humidity;BMP_temperature;BMP_pressure;BME280_temperature;BME280_humidity;BME280_pressure;Samples;Min_cycle;Max_cycle;Signal;HPM_P1;HPM_P2
2023/01/23 00:00:29;;;;;;;45.40;24.83;;;;;;;3.62;74.22;101865.84;4995595;27;97512;-80
2023/01/23 00:02:55;;;;;;;44.23;24.67;;;;;;;3.60;74.16;101870.13;4998585;27;101575;-80
2023/01/23 00:05:21;;;;;;;45.13;24.33;;;;;;;3.59;74.07;101873.59;5015474;27;101967;-81
2023/01/23 00:07:47;;;;;;;46.17;25.87;;;;;;;3.54;74.15;101866.56;5018107;27;96972;-81
2023/01/23 00:10:13;;;;;;;42.10;24.70;;;;;;;3.60;74.32;101879.66;5014548;27;97008;-81
2023/01/23 00:12:42;;;;;;;44.87;25.20;;;;;;;3.61;73.91;101881.41;5014966;28;101618;-80
2023/01/23 00:15:10;;;;;;;44.23;24.57;;;;;;;3.61;74.13;101877.09;5014794;27;100898;-81
2023/01/23 00:17:35;;;;;;;41.73;23.00;;;;;;;3.62;74.29;101876.25;5033081;27;97044;-80
2023/01/23 00:20:01;;;;;;;51.07;26.33;;;;;;;3.64;73.95;101868.50;5015088;27;97295;-80
2023/01/23 00:22:26;;;;;;;48.27;26.20;;;;;;;3.64;74.06;101873.69;5014793;28;101069;-80
2023/01/23 00:24:52;;;;;;;43.47;24.90;;;;;;;3.65;74.04;101864.16;4997888;27;101749;-80
2023/01/23 00:27:17;;;;;;;43.63;25.30;;;;;;;3.59;73.94;101850.22;5015098;28;97391;-80
2023/01/23 00:29:44;;;;;;;47.07;25.93;;;;;;;3.76;74.34;101863.53;5018841;27;98121;-80
2023/01/23 00:32:10;;;;;;;44.30;24.53;;;;;;;3.77;73.91;101861.78;4999090;27;101938;-80
2023/01/23 00:34:36;;;;;;;52.83;27.27;;;;;;;3.65;73.87;101857.25;5000407;27;101304;-81
2023/01/23 00:37:02;;;;;;;45.07;25.90;;;;;;;3.62;73.99;101854.59;5009704;28;97868;-80
2023/01/23 00:39:28;;;;;;;52.57;27.93;;;;;;;3.73;73.63;101879.06;4999029;28;96856;-80
2023/01/23 00:41:53;;;;;;;49.97;26.70;;;;;;;3.72;74.06;101884.19;5000055;27;99658;-80
2023/01/23 00:44:19;;;;;;;49.93;26.70;;;;;;;3.67;74.20;101876.34;4999733;27;101005;-80
2023/01/23 00:46:45;;;;;;;50.63;26.13;;;;;;;3.70;74.07;101886.78;5027834;27;97494;-80
2023/01/23 00:49:11;;;;;;;53.17;26.80;;;;;;;3.60;73.75;101882.25;5017422;27;96929;-80
2023/01/23 00:51:36;;;;;;;50.37;26.43;;;;;;;3.69;74.19;101886.75;5009100;27;101652;-80
2023/01/23 00:54:02;;;;;;;51.03;25.60;;;;;;;3.71;74.01;101885.06;5017366;27;101811;-80
2023/01/23 00:56:27;;;;;;;51.60;26.57;;;;;;;3.72;74.02;101892.88;5019678;27;96874;-79
2023/01/23 00:58:53;;;;;;;48.83;25.53;;;;;;;3.71;73.50;101896.31;5011124;27;96847;-80
2023/01/23 01:01:21;;;;;;;50.00;26.77;;;;;;;3.60;74.11;101893.50;5016066;27;101251;-79
2023/01/23 01:03:47;;;;;;;50.77;25.83;;;;;;;3.68;74.14;101904.06;5011469;27;101251;-81
2023/01/23 01:06:13;;;;;;;51.30;26.37;;;;;;;3.66;73.77;101899.66;5014716;27;96765;-80
2023/01/23 01:08:39;;;;;;;55.93;27.33;;;;;;;3.60;74.46;101898.69;5013592;27;96723;-80
2023/01/23 01:11:05;;;;;;;47.43;24.10;;;;;;;3.54;74.47;101887.31;5011421;27;98585;-80
2023/01/23 01:13:30;;;;;;;49.17;26.80;;;;;;;3.64;74.28;101899.66;5000552;27;101158;-80
2023/01/23 01:15:56;;;;;;;55.17;26.33;;;;;;;3.64;74.08;101891.88;5017321;27;97951;-81
2023/01/23 01:18:22;;;;;;;46.03;24.50;;;;;;;3.60;74.27;101882.25;5013940;27;98033;-80
2023/01/23 01:20:48;;;;;;;48.40;26.10;;;;;;;3.61;73.96;101889.22;5029029;28;98206;-80
2023/01/23 01:23:14;;;;;;;49.33;26.10;;;;;;;3.59;74.24;101891.75;5013453;27;101427;-80
2023/01/23 01:25:40;;;;;;;55.80;29.17;;;;;;;3.68;74.14;101908.38;5010151;27;98415;-79
2023/01/23 01:28:06;;;;;;;50.77;27.37;;;;;;;3.57;74.18;101880.47;4994943;27;99627;-80
2023/01/23 01:30:32;;;;;;;46.53;25.80;;;;;;;3.68;74.18;101911.84;4994036;28;101222;-80
2023/01/23 01:32:58;;;;;;;54.70;27.90;;;;;;;3.69;74.35;101915.31;4993247;27;101466;-81
2023/01/23 01:35:23;;;;;;;54.77;28.10;;;;;;;3.67;74.59;101909.25;4999043;27;97278;-80
2023/01/23 01:37:49;;;;;;;47.63;26.13;;;;;;;3.55;74.54;101884.78;5014878;27;97662;-81
2023/01/23 01:40:19;;;;;;;57.93;28.10;;;;;;;3.67;74.33;101909.25;5009349;28;101808;-80
2023/01/23 01:42:51;;;;;;;57.43;28.27;;;;;;;3.63;74.44;101914.34;5012046;27;101354;-80
2023/01/23 01:45:55;;;;;;;52.73;28.20;;;;;;;3.68;74.17;101917.03;4997980;27;97013;-80
2023/01/23 01:48:23;;;;;;;58.20;27.20;;;;;;;3.69;74.45;101923.09;5028455;27;96838;-81
2023/01/23 01:50:49;;;;;;;57.97;29.53;;;;;;;3.70;74.35;101941.34;5015758;27;101665;-81
2023/01/23 01:53:15;;;;;;;53.80;27.83;;;;;;;3.65;74.22;101937.75;4997164;28;101765;-80
2023/01/23 01:55:41;;;;;;;53.37;27.50;;;;;;;3.62;74.37;101943.75;5011060;27;96855;-80
2023/01/23 01:58:08;;;;;;;51.43;27.53;;;;;;;3.70;74.37;101950.84;5015349;27;97651;-80
2023/01/23 02:00:33;;;;;;;56.30;29.57;;;;;;;3.62;74.04;101935.09;5013125;27;102097;-80
2023/01/23 02:03:01;;;;;;;54.07;26.53;;;;;;;3.58;74.06;101936.78;4996250;27;101234;-80
2023/01/23 02:05:31;;;;;;;52.13;26.57;;;;;;;3.70;74.29;101964.72;4997800;28;96820;-80
2023/01/23 02:08:04;;;;;;;54.20;27.73;;;;;;;3.65;74.21;101952.47;5009053;27;98842;-80
2023/01/23 02:10:31;;;;;;;;;;;;;;;3.69;74.34;101964.66;5036224;27;101338;-81
2023/01/23 02:13:38;;;;;;;51.67;26.57;;;;;;;3.63;74.19;101966.28;5016259;27;101366;-80
2023/01/23 02:16:09;;;;;;;55.47;26.63;;;;;;;3.57;74.44;101965.28;5040416;27;97229;-80
2023/01/23 02:18:36;;;;;;;58.33;28.27;;;;;;;3.60;74.99;101975.75;5013194;27;97266;-79
2023/01/23 02:21:07;;;;;;;53.93;27.13;;;;;;;3.62;74.78;101963.66;4995252;28;101494;-80
2023/01/23 02:23:57;;;;;;;53.90;28.30;;;;;;;3.66;74.30;101972.41;5016553;27;101479;-81
2023/01/23 02:26:39;;;;;;;52.87;27.13;;;;;;;3.55;74.61;101974.75;4998193;27;97325;-80
2023/01/23 02:29:05;;;;;;;60.13;27.10;;;;;;;3.54;74.62;101970.41;4992367;27;97250;-80
2023/01/23 02:31:41;;;;;;;56.83;28.07;;;;;;;3.55;74.64;101979.94;5002186;27;101675;-81
2023/01/23 02:34:12;;;;;;;60.23;28.73;;;;;;;3.60;74.86;101979.22;4996552;27;101542;-79
2023/01/23 02:36:39;;;;;;;61.37;28.63;;;;;;;3.60;74.76;101988.72;5031474;27;96818;-80
2023/01/23 02:39:14;;;;;;;59.03;28.30;;;;;;;3.52;74.90;101991.19;5006110;27;97207;-80
2023/01/23 02:41:42;;;;;;;57.27;29.13;;;;;;;3.48;75.07;101976.34;5014826;27;98287;-80
2023/01/23 02:44:15;;;;;;;58.97;28.20;;;;;;;3.60;74.98;101991.31;4998141;27;100390;-80
2023/01/23 02:46:45;;;;;;;59.23;27.27;;;;;;;3.62;74.79;101990.50;5013082;27;97480;-80
2023/01/23 02:49:10;;;;;;;63.80;28.93;;;;;;;3.67;75.00;101993.22;5032777;27;97493;-80
2023/01/23 02:51:37;;;;;;;62.13;27.97;;;;;;;3.67;75.09;101988.03;5008307;28;102018;-81
2023/01/23 02:54:03;;;;;;;64.33;28.07;;;;;;;3.68;74.81;101984.56;5014160;27;101294;-79
2023/01/23 02:56:29;;;;;;;61.60;27.97;;;;;;;3.52;74.71;101978.19;5000466;27;96884;-80
2023/01/23 03:01:38;;;;;;;61.33;28.97;;;;;;;3.55;74.68;101970.47;5030191;27;101568;-80
2023/01/23 03:04:05;;;;;;;62.50;27.40;;;;;;;3.57;74.70;101978.28;5015450;27;101399;-81
2023/01/23 03:06:36;;;;;;;60.53;27.23;;;;;;;3.73;74.84;102002.88;5018764;27;96877;-80
2023/01/23 03:09:09;;;;;;;62.70;29.87;;;;;;;3.72;74.67;102001.09;5000256;27;97457;-79
2023/01/23 03:11:37;;;;;;;62.47;29.50;;;;;;;3.73;74.82;102003.72;4997910;27;100982;-80
2023/01/23 03:14:05;;;;;;;59.03;26.73;;;;;;;3.73;74.92;102001.13;4991919;27;101464;-80
2023/01/23 03:16:31;;;;;;;69.00;28.80;;;;;;;3.73;74.76;101995.06;5002558;27;96831;-80
2023/01/23 03:18:58;;;;;;;58.33;26.73;;;;;;;3.71;74.53;101995.03;5013144;27;97407;-80
2023/01/23 03:21:23;;;;;;;56.00;27.40;;;;;;;3.75;74.77;101996.84;5014987;27;101515;-80
2023/01/23 03:23:49;;;;;;;63.27;28.77;;;;;;;3.72;74.53;101990.69;5002582;27;101160;-80
2023/01/23 03:26:16;;;;;;;62.27;29.80;;;;;;;3.66;74.50;101982.78;5003016;27;97308;-81
2023/01/23 03:31:27;;;;;;;60.83;29.27;;;;;;;3.65;73.81;101989.69;5021893;27;101861;-80
2023/01/23 03:33:52;;;;;;;55.57;27.17;;;;;;;3.77;74.53;102015.94;5011533;27;101384;-81
2023/01/23 03:36:18;;;;;;;58.60;29.10;;;;;;;3.71;74.50;102014.94;5017039;27;97293;-80
2023/01/23 03:41:44;;;;;;;57.57;27.17;;;;;;;3.77;74.57;102020.25;4986365;27;100698;-81
2023/01/23 03:44:10;;;;;;;60.73;27.73;;;;;;;3.78;74.52;102011.59;5009083;27;101215;-80
2023/01/23 03:46:36;;;;;;;57.20;27.87;;;;;;;3.76;74.15;102011.59;5017405;27;96811;-80
2023/01/23 03:49:02;;;;;;;54.93;28.20;;;;;;;3.81;74.07;102015.16;5033480;27;97578;-80
2023/01/23 03:51:28;;;;;;;54.77;28.77;;;;;;;3.82;73.91;102016.03;5017414;27;102041;-79
2023/01/23 03:53:53;;;;;;;56.47;28.90;;;;;;;3.83;73.66;102017.78;5012206;27;98196;-80
2023/01/23 03:56:19;;;;;;;56.47;27.63;;;;;;;3.81;73.83;102024.66;5012613;27;97357;-80
2023/01/23 03:58:44;;;;;;;54.40;28.10;;;;;;;3.75;74.34;102016.72;5009401;28;96904;-80
2023/01/23 04:01:12;;;;;;;56.87;28.63;;;;;;;3.81;74.06;102020.34;4999825;27;100963;-81
2023/01/23 04:03:40;;;;;;;58.57;28.23;;;;;;;3.85;74.16;102029.09;5013523;27;101471;-80
2023/01/23 04:06:06;;;;;;;58.77;28.60;;;;;;;3.67;74.03;101988.03;5011394;27;97563;-80
2023/01/23 04:08:33;;;;;;;59.70;29.10;;;;;;;3.79;73.78;102016.84;5016676;27;97355;-80
2023/01/23 04:11:07;;;;;;;53.70;27.77;;;;;;;3.87;73.80;102014.41;5011452;27;101681;-80
2023/01/23 04:13:32;;;;;;;55.93;27.40;;;;;;;3.89;73.84;102009.22;5013832;28;97878;-80
2023/01/23 04:15:59;;;;;;;54.37;28.27;;;;;;;3.88;73.62;102007.50;5002194;27;97179;-80
2023/01/23 04:18:25;;;;;;;58.10;29.10;;;;;;;3.81;73.58;101996.97;5018277;27;97172;-80
2023/01/23 04:20:51;;;;;;;56.70;26.33;;;;;;;3.90;73.65;102017.06;4999278;27;101843;-79
2023/01/23 04:23:17;;;;;;;61.90;29.47;;;;;;;3.89;73.75;102014.44;5015921;27;102359;-80
2023/01/23 04:25:43;;;;;;;59.80;28.80;;;;;;;3.90;73.83;102021.38;5000170;27;97201;-80
2023/01/23 04:28:12;;;;;;;67.40;31.37;;;;;;;3.74;73.42;101996.81;5002182;27;97193;-80
2023/01/23 04:30:38;;;;;;;58.33;28.47;;;;;;;3.84;73.44;102007.44;5012169;27;101314;-80
2023/01/23 04:33:11;;;;;;;67.93;30.80;;;;;;;3.90;73.52;102011.88;5020576;27;102660;-80
2023/01/23 04:35:38;;;;;;;69.07;30.03;;;;;;;3.91;73.50;102008.41;5018916;27;96779;-80
2023/01/23 04:38:03;;;;;;;57.77;28.33;;;;;;;3.85;73.93;101991.00;5001299;27;98023;-81
2023/01/23 04:40:29;;;;;;;66.57;28.87;;;;;;;3.80;73.56;101986.53;5012364;27;101152;-81
2023/01/23 04:42:58;;;;;;;59.20;29.20;;;;;;;3.93;73.59;102013.66;4999285;27;101542;-81
2023/01/23 04:45:44;;;;;;;63.97;30.00;;;;;;;3.78;73.67;101990.81;5014287;27;96815;-80
2023/01/23 04:48:12;;;;;;;63.30;29.67;;;;;;;3.91;73.68;102016.22;5031628;27;97006;-81
2023/01/23 04:50:38;;;;;;;61.53;29.10;;;;;;;3.96;73.21;102026.72;4997193;27;101373;-80
2023/01/23 04:53:04;;;;;;;58.40;27.97;;;;;;;3.91;73.37;102018.81;5014829;27;97866;-80
2023/01/23 04:55:30;;;;;;;61.63;28.47;;;;;;;3.92;73.36;102022.28;5018161;27;97232;-80
2023/01/23 04:57:57;;;;;;;61.43;28.50;;;;;;;3.97;73.58;102037.13;5017861;27;97696;-80
2023/01/23 05:00:25;;;;;;;60.47;29.80;;;;;;;3.93;73.50;102032.72;5001249;27;101613;-80
2023/01/23 05:02:51;;;;;;;58.70;27.83;;;;;;;3.81;73.64;102017.75;4995694;27;101467;-80
2023/01/23 05:05:19;;;;;;;55.17;26.53;;;;;;;3.93;73.25;102037.06;5013725;27;96915;-80
2023/01/23 05:07:48;;;;;;;57.33;27.03;;;;;;;3.93;73.32;102042.25;5026120;27;97173;-81
2023/01/23 05:10:15;;;;;;;53.17;25.37;;;;;;;3.96;73.24;102056.16;4996734;27;101629;-80
2023/01/23 05:12:41;;;;;;;54.33;26.37;;;;;;;3.95;73.42;102054.41;5015519;27;101437;-80
2023/01/23 05:15:08;;;;;;;60.60;28.60;;;;;;;3.96;73.55;102055.31;5013624;27;97158;-81
2023/01/23 05:17:36;;;;;;;55.27;26.23;;;;;;;3.86;73.43;102041.22;4990562;27;97417;-80
2023/01/23 05:20:03;;;;;;;60.67;28.77;;;;;;;3.95;73.31;102054.41;5017304;27;101339;-80
2023/01/23 05:22:30;;;;;;;52.17;25.73;;;;;;;3.93;73.23;102050.91;5009874;28;101247;-81
2023/01/23 05:24:55;;;;;;;57.50;26.97;;;;;;;3.90;73.48;102049.94;4998893;28;96832;-78
2023/01/23 05:27:24;;;;;;;59.03;28.53;;;;;;;3.98;73.08;102069.19;5017732;27;96933;-80
2023/01/23 05:29:51;;;;;;;52.63;27.37;;;;;;;3.79;73.42;102040.22;5017155;27;101898;-80
2023/01/23 05:32:22;;;;;;;;;;;;;;;3.97;73.50;102081.31;5018505;27;101741;-80
2023/01/23 05:35:06;;;;;;;55.93;26.03;;;;;;;3.96;73.46;102078.69;4998641;27;96794;-80
2023/01/23 05:37:32;;;;;;;58.87;27.03;;;;;;;4.00;73.61;102077.91;5015220;27;98062;-80
2023/01/23 05:40:07;;;;;;;57.35;28.27;;;;;;;3.94;73.20;102078.63;5008867;27;101548;-80
2023/01/23 05:43:05;;;;;;;57.73;27.07;;;;;;;3.83;73.18;102052.41;4975658;27;100230;-80
2023/01/23 05:45:53;;;;;;;55.13;26.97;;;;;;;3.99;73.49;102076.16;4992753;27;97774;-80
2023/01/23 05:48:27;;;;;;;53.50;25.80;;;;;;;3.89;73.23;102069.88;4993600;27;98214;-79
2023/01/23 05:50:52;;;;;;;54.10;27.33;;;;;;;3.97;73.10;102086.50;4998499;27;100856;-80
2023/01/23 05:53:19;;;;;;;58.60;27.27;;;;;;;4.01;73.30;102095.22;4998018;27;101454;-80
2023/01/23 05:55:45;;;;;;;57.50;27.97;;;;;;;4.00;73.31;102089.16;4995680;27;96737;-80
2023/01/23 05:58:12;;;;;;;55.60;28.13;;;;;;;3.99;73.23;102100.41;5014322;28;96915;-81
2023/01/23 06:00:55;;;;;;;52.53;25.67;;;;;;;3.93;73.23;102097.69;5016316;27;99930;-80
2023/01/23 06:03:39;;;;;;;50.73;26.27;;;;;;;3.92;73.20;102108.03;5034206;27;96868;-80
2023/01/23 06:06:24;;;;;;;53.70;26.77;;;;;;;3.82;73.19;102092.25;5035439;27;96816;-80
2023/01/23 06:08:51;;;;;;;48.83;25.63;;;;;;;3.96;73.23;102115.06;5015176;27;97295;-80
2023/01/23 06:11:17;;;;;;;53.53;26.20;;;;;;;3.91;73.12;102103.69;4996555;27;101170;-79
2023/01/23 06:13:42;;;;;;;49.23;25.87;;;;;;;4.00;73.17;102111.69;4995544;27;101510;-81
2023/01/23 06:16:08;;;;;;;50.03;24.60;;;;;;;4.02;73.46;102115.19;4999738;27;97162;-79
2023/01/23 06:18:34;;;;;;;51.90;26.10;;;;;;;4.00;73.31;102120.34;5023099;27;97104;-79
2023/01/23 06:21:00;;;;;;;52.20;26.00;;;;;;;4.03;73.19;102132.53;5012449;27;101589;-81
2023/01/23 06:23:27;;;;;;;55.90;27.20;;;;;;;4.01;72.97;102132.47;5014471;27;101301;-79
2023/01/23 06:25:53;;;;;;;57.47;27.87;;;;;;;4.03;73.08;102135.13;5014390;27;98105;-81
2023/01/23 06:28:18;;;;;;;54.20;27.37;;;;;;;4.03;72.90;102135.13;5003333;27;97087;-79
2023/01/23 06:30:44;;;;;;;56.63;28.67;;;;;;;4.04;72.50;102142.97;5019766;27;101335;-80
2023/01/23 06:33:21;;;;;;;54.23;26.77;;;;;;;4.04;72.94;102142.97;5015867;27;100811;-80
2023/01/23 06:35:46;;;;;;;51.03;25.73;;;;;;;4.03;72.82;102146.41;5004886;27;97601;-80
2023/01/23 06:38:12;;;;;;;53.70;27.07;;;;;;;3.91;72.78;102143.53;5015180;27;96906;-81
2023/01/23 06:40:38;;;;;;;53.47;27.00;;;;;;;4.05;72.71;102164.63;5014949;27;101130;-80
2023/01/23 06:43:24;;;;;;;54.60;27.70;;;;;;;4.04;72.95;102171.56;5013984;28;101366;-80
2023/01/23 06:45:50;;;;;;;55.47;26.90;;;;;;;4.03;72.74;102168.91;5029738;27;97318;-80
2023/01/23 06:48:18;;;;;;;49.23;26.13;;;;;;;3.88;72.90;102150.38;5026112;28;96887;-77
2023/01/23 06:50:43;;;;;;;50.77;26.53;;;;;;;3.88;72.59;102147.78;4998621;27;101335;-78
2023/01/23 06:53:15;;;;;;;56.30;26.93;;;;;;;4.04;72.62;102181.06;5026072;27;98315;-78
2023/01/23 06:55:43;;;;;;;48.23;25.07;;;;;;;4.04;72.61;102181.06;4997569;28;97347;-78
2023/01/23 06:58:10;;;;;;;47.43;24.93;;;;;;;3.95;72.57;102173.94;5015670;27;96971;-78
2023/01/23 07:00:36;;;;;;;47.83;25.50;;;;;;;4.07;72.68;102191.50;5010620;27;102006;-79
2023/01/23 07:03:04;;;;;;;49.10;25.77;;;;;;;4.07;72.42;102186.31;5010250;28;101531;-78
2023/01/23 07:05:30;;;;;;;46.60;25.07;;;;;;;4.07;72.79;102188.91;5030749;27;97529;-78
2023/01/23 07:07:56;;;;;;;48.70;26.27;;;;;;;4.05;72.62;102182.84;5025107;28;97095;-78
2023/01/23 07:10:22;;;;;;;44.43;23.60;;;;;;;4.07;72.56;102171.63;5026872;27;101520;-79
2023/01/23 07:12:49;;;;;;;44.33;24.70;;;;;;;4.09;72.78;102185.50;5016225;27;101956;-80
2023/01/23 07:15:15;;;;;;;44.10;24.20;;;;;;;4.09;72.40;102188.13;5022357;27;96775;-80
2023/01/23 07:17:41;;;;;;;44.27;24.63;;;;;;;4.12;72.56;102196.84;5002993;27;97332;-78
2023/01/23 07:20:08;;;;;;;43.13;24.20;;;;;;;4.07;72.46;102195.03;5016469;27;101527;-80
2023/01/23 07:22:39;;;;;;;43.73;23.77;;;;;;;4.12;72.74;102215.03;5001038;27;101716;-79
2023/01/23 07:25:05;;;;;;;45.67;24.20;;;;;;;4.06;72.36;102203.63;5000893;27;97920;-82
2023/01/23 07:27:32;;;;;;;46.57;24.53;;;;;;;4.01;72.24;102205.25;5016855;28;96951;-81
2023/01/23 07:29:57;;;;;;;42.53;23.43;;;;;;;4.08;71.93;102211.50;5017195;27;101698;-80
2023/01/23 07:32:23;;;;;;;43.03;23.60;;;;;;;4.04;71.73;102207.03;5003334;27;101175;-80
2023/01/23 07:34:48;;;;;;;43.97;23.00;;;;;;;4.05;71.55;102216.63;5010008;27;96906;-81
2023/01/23 07:37:14;;;;;;;43.70;23.30;;;;;;;4.04;71.86;102213.16;5002215;28;96919;-79
2023/01/23 07:39:39;;;;;;;42.43;23.30;;;;;;;4.05;72.20;102209.69;5018742;27;101277;-79
2023/01/23 07:42:05;;;;;;;43.37;24.03;;;;;;;4.05;71.89;102214.03;5017623;27;101743;-79
2023/01/23 07:44:30;;;;;;;43.43;22.83;;;;;;;4.05;71.84;102212.28;5024649;27;97251;-79
2023/01/23 07:46:56;;;;;;;42.17;23.53;;;;;;;4.05;72.14;102216.63;5018326;27;97474;-79
2023/01/23 07:49:22;;;;;;;43.27;25.47;;;;;;;3.99;72.02;102204.34;5014066;28;97479;-79
2023/01/23 07:51:47;;;;;;;42.63;23.73;;;;;;;4.09;71.94;102216.72;5012026;27;97282;-79
2023/01/23 07:54:13;;;;;;;39.80;22.13;;;;;;;4.11;71.70;102221.94;5011867;28;97063;-79
2023/01/23 07:56:39;;;;;;;40.33;23.87;;;;;;;4.11;71.96;102232.34;5012947;27;97013;-79
2023/01/23 07:59:04;;;;;;;41.83;23.73;;;;;;;3.94;71.92;102208.56;5016978;27;101386;-79
2023/01/23 08:01:30;;;;;;;41.90;22.73;;;;;;;3.97;72.03;102200.84;4998611;27;101120;-80
2023/01/23 08:03:55;;;;;;;41.57;23.53;;;;;;;4.12;71.74;102228.03;5019051;27;96967;-80
2023/01/23 08:06:21;;;;;;;36.03;22.27;;;;;;;4.14;71.58;102234.16;5005125;27;98172;-79
2023/01/23 08:08:47;;;;;;;44.67;23.70;;;;;;;4.08;71.62;102221.88;5017733;27;101707;-80
2023/01/23 08:11:13;;;;;;;41.20;23.43;;;;;;;4.13;71.83;102234.97;4996236;28;101267;-79
2023/01/23 08:13:39;;;;;;;38.70;22.67;;;;;;;4.09;71.63;102221.03;5031035;27;97026;-79
2023/01/23 08:16:05;;;;;;;43.33;23.43;;;;;;;4.13;71.66;102222.88;5024177;28;97214;-79
2023/01/23 08:18:32;;;;;;;45.17;24.60;;;;;;;4.01;71.74;102193.97;5016130;27;101315;-79
2023/01/23 08:21:00;;;;;;;41.40;23.27;;;;;;;4.18;71.63;102226.44;5012105;28;97927;-79
2023/01/23 08:23:27;;;;;;;39.97;22.73;;;;;;;4.20;71.46;102229.94;5017974;27;97387;-79
2023/01/23 08:25:53;;;;;;;41.40;22.63;;;;;;;4.21;71.75;102231.69;5001681;28;96851;-79
2023/01/23 08:28:19;;;;;;;39.67;21.93;;;;;;;4.12;71.39;102212.44;4997924;28;101705;-79
2023/01/23 08:30:45;;;;;;;43.43;23.70;;;;;;;4.22;71.38;102233.47;5000004;27;101176;-79
2023/01/23 08:33:10;;;;;;;42.77;23.53;;;;;;;4.24;71.19;102236.97;5017960;27;96898;-79
2023/01/23 08:35:36;;;;;;;44.37;23.63;;;;;;;4.25;71.50;102240.47;5010891;27;97380;-79
2023/01/23 08:38:02;;;;;;;39.10;23.43;;;;;;;4.26;71.42;102237.00;5016850;27;101106;-79
2023/01/23 08:40:28;;;;;;;42.77;22.57;;;;;;;4.29;71.27;102229.28;5000727;27;101629;-79
2023/01/23 08:42:54;;;;;;;44.83;25.50;;;;;;;4.30;71.21;102231.94;5016717;27;97632;-79
2023/01/23 08:45:20;;;;;;;39.53;23.33;;;;;;;4.27;71.52;102241.34;5029378;28;97196;-79
2023/01/23 08:47:46;;;;;;;40.33;23.70;;;;;;;4.27;71.24;102242.22;5011470;27;98199;-79
2023/01/23 08:50:12;;;;;;;42.57;24.80;;;;;;;4.24;71.04;102241.28;5011255;28;97368;-79
2023/01/23 08:52:37;;;;;;;41.97;23.60;;;;;;;4.22;71.19;102243.88;5011228;27;96820;-79
2023/01/23 08:55:03;;;;;;;42.53;25.10;;;;;;;4.25;71.28;102248.28;5018257;27;97269;-79
2023/01/23 08:57:29;;;;;;;44.47;24.97;;;;;;;4.27;71.08;102254.34;4997804;27;101397;-79
2023/01/23 08:59:54;;;;;;;43.13;24.37;;;;;;;4.20;71.10;102252.47;5017215;27;101387;-79
2023/01/23 09:02:20;;;;;;;39.10;24.33;;;;;;;4.20;71.12;102255.94;5033150;27;97138;-79
2023/01/23 09:04:46;;;;;;;39.03;23.60;;;;;;;4.19;71.12;102253.31;4998004;28;97321;-80
2023/01/23 09:07:12;;;;;;;43.33;23.87;;;;;;;4.23;71.25;102255.16;5028226;28;97447;-79
2023/01/23 09:09:38;;;;;;;43.43;24.93;;;;;;;4.24;71.17;102262.97;5007095;28;101208;-79
2023/01/23 09:12:04;;;;;;;44.17;25.53;;;;;;;4.25;71.31;102253.47;4995984;27;96968;-79
2023/01/23 09:14:30;;;;;;;42.97;24.70;;;;;;;4.20;71.25;102261.16;4995674;28;97189;-80
2023/01/23 09:16:55;;;;;;;40.40;23.73;;;;;;;4.23;71.32;102253.41;5009401;27;100801;-80
2023/01/23 09:19:21;;;;;;;46.93;24.70;;;;;;;4.25;71.21;102259.53;5044482;27;97822;-79
2023/01/23 09:21:46;;;;;;;43.80;23.40;;;;;;;4.20;71.20;102240.34;5015951;27;97299;-81
2023/01/23 09:24:12;;;;;;;41.03;25.10;;;;;;;4.29;71.53;102261.34;5013532;27;97340;-79
2023/01/23 09:26:37;;;;;;;42.00;24.93;;;;;;;4.27;70.78;102262.16;4998707;27;101819;-77
2023/01/23 09:29:03;;;;;;;40.50;23.57;;;;;;;4.30;71.06;102260.53;4999040;27;100853;-80
2023/01/23 09:31:28;;;;;;;42.60;23.57;;;;;;;4.25;70.95;102258.66;5030225;27;97935;-79
2023/01/23 09:33:54;;;;;;;42.60;25.33;;;;;;;4.19;70.95;102246.41;5034055;27;97375;-79
2023/01/23 09:36:19;;;;;;;41.67;24.43;;;;;;;4.21;71.06;102241.22;5011224;27;101403;-80
2023/01/23 09:38:47;;;;;;;46.90;25.40;;;;;;;4.30;71.08;102260.53;5016586;27;98019;-80
2023/01/23 09:41:17;;;;;;;43.47;23.13;;;;;;;4.29;71.27;102257.88;5013438;28;96841;-80
2023/01/23 09:43:53;;;;;;;44.03;24.67;;;;;;;4.36;71.12;102264.09;5029441;27;97428;-80
2023/01/23 09:47:01;;;;;;;44.57;25.13;;;;;;;4.40;70.91;102259.00;4995951;27;101303;-80
2023/01/23 09:49:41;;;;;;;46.10;26.33;;;;;;;4.43;70.94;102266.88;5030632;27;101733;-79
2023/01/23 09:52:22;;;;;;;44.93;25.20;;;;;;;4.44;70.92;102259.94;5031680;27;96837;-80
2023/01/23 09:54:54;;;;;;;43.53;25.17;;;;;;;4.47;70.90;102265.22;5011199;27;97232;-80
2023/01/23 09:57:25;;;;;;;41.95;24.08;;;;;;;4.29;71.20;102224.94;5010056;28;101441;-77
2023/01/23 10:00:06;;;;;;;47.37;26.70;;;;;;;4.43;71.04;102255.59;5007629;28;101885;-79
2023/01/23 10:02:31;;;;;;;46.43;24.43;;;;;;;4.45;71.15;102252.19;5045694;27;97229;-80
2023/01/23 10:04:57;;;;;;;51.80;26.70;;;;;;;4.53;71.24;102253.22;5028635;27;96828;-80
2023/01/23 10:07:51;;;;;;;46.73;26.43;;;;;;;4.58;71.38;102255.03;5016018;27;101255;-80
2023/01/23 10:10:16;;;;;;;50.53;26.37;;;;;;;4.56;71.14;102252.41;5006629;27;101549;-81
2023/01/23 10:13:01;;;;;;;48.00;25.77;;;;;;;4.54;71.17;102254.97;5021590;27;99781;-80
2023/01/23 10:15:35;;;;;;;46.43;24.90;;;;;;;4.52;70.51;102248.00;5030508;27;97622;-80
2023/01/23 10:18:36;;;;;;;49.57;26.60;;;;;;;4.55;71.00;102258.47;5008118;28;101543;-79
2023/01/23 10:21:20;;;;;;;46.35;25.55;;;;;;;4.54;70.26;102259.31;5026067;28;96867;-80
2023/01/23 10:23:47;;;;;;;45.93;25.77;;;;;;;4.54;70.20;102249.78;5004000;28;96762;-80
2023/01/23 10:26:18;;;;;;;46.60;26.07;;;;;;;4.53;70.71;102244.53;5012938;28;96924;-80
2023/01/23 10:28:45;;;;;;;41.30;24.67;;;;;;;4.46;70.61;102243.53;5010993;28;98080;-80
2023/01/23 10:31:25;;;;;;;46.03;25.63;;;;;;;4.48;70.50;102243.53;5010133;28;100737;-79
2023/01/23 10:33:56;;;;;;;48.10;25.53;;;;;;;4.47;70.69;102237.47;5011763;28;98092;-79
2023/01/23 10:36:27;;;;;;;50.30;27.17;;;;;;;4.49;70.73;102237.53;5021621;28;97322;-79
2023/01/23 10:39:03;;;;;;;47.10;24.77;;;;;;;4.51;70.90;102234.13;5009242;28;98107;-78
2023/01/23 10:41:28;;;;;;;44.93;26.63;;;;;;;4.53;70.48;102227.19;5020938;28;97907;-78
2023/01/23 10:43:56;;;;;;;52.17;26.37;;;;;;;4.52;70.79;102235.84;5007726;28;97215;-79
2023/01/23 10:46:34;;;;;;;46.73;25.57;;;;;;;4.53;70.49;102237.59;5012589;28;97377;-79
2023/01/23 10:49:01;;;;;;;42.10;24.57;;;;;;;4.62;70.62;102241.25;5023946;28;101226;-79
2023/01/23 10:51:38;;;;;;;44.97;25.97;;;;;;;4.63;70.28;102240.41;5005913;28;101894;-78
2023/01/23 10:54:10;;;;;;;46.13;25.57;;;;;;;4.63;70.69;102240.41;5027730;28;97792;-78
2023/01/23 10:56:57;;;;;;;47.97;26.27;;;;;;;4.62;70.10;102228.25;5008409;28;97344;-79
2023/01/23 10:59:35;;;;;;;51.27;24.30;;;;;;;4.66;70.52;102238.75;4988423;28;101808;-78
2023/01/23 11:02:13;;;;;;;48.80;26.70;;;;;;;4.58;70.47;102222.09;5026320;28;101181;-79
2023/01/23 11:04:45;;;;;;;48.97;25.87;;;;;;;4.65;70.23;102223.09;5027184;28;97292;-79
2023/01/23 11:07:35;;;;;;;47.03;24.98;;;;;;;4.61;70.05;102218.69;5000851;28;97167;-78
2023/01/23 11:10:16;;;;;;;46.13;24.60;;;;;;;4.64;69.92;102231.75;5013401;28;97696;-79
2023/01/23 11:12:47;;;;;;;47.37;25.03;;;;;;;4.52;70.02;102211.56;5007301;28;102718;-79
2023/01/23 11:15:28;;;;;;;46.72;25.58;;;;;;;4.55;70.27;102222.03;5017446;28;97451;-79
2023/01/23 11:17:55;;;;;;;45.03;25.67;;;;;;;4.41;70.29;102193.13;5014229;28;97439;-80
2023/01/23 11:20:29;;;;;;;48.27;26.17;;;;;;;4.54;69.98;102209.91;4994848;28;101436;-79
2023/01/23 11:23:05;;;;;;;45.73;26.83;;;;;;;4.62;70.34;102226.50;5016816;28;97326;-79
2023/01/23 11:25:37;;;;;;;50.17;27.43;;;;;;;4.65;70.06;102220.50;5011385;28;96908;-78
2023/01/23 11:28:29;;;;;;;47.23;26.40;;;;;;;4.63;70.40;102217.88;5014369;28;97022;-79
2023/01/23 11:30:57;;;;;;;48.58;25.77;;;;;;;4.65;70.36;102218.78;5010178;28;101564;-78